Time;durP1;ratioP1;P1;durP2;ratioP2;P2;SDS_P1;SDS_P2;PMS_P1;PMS_P2;Temp;Humidity;BMP_temperature;BMP_pressure;BME280_temperature;BME280_humidity;BME280_pressure;Samples;Min_cycle;Max_cycle;Signal;HPM_P1;HPM_P2
2023/03/01 00:00:39;;;;;;;21.80;9.27;;;-1.70;99.90;;;;;;4160871;28;20450;-75
2023/03/01 00:02:41;;;;;;;17.03;8.27;;;-1.70;99.90;;;;;;4163246;28;20500;-75
2023/03/01 00:04:43;;;;;;;19.17;8.53;;;-1.70;99.90;;;;;;4181010;28;20491;-75
2023/03/01 00:06:45;;;;;;;18.77;8.00;;;-1.70;99.90;;;;;;4161854;28;20564;-75
2023/03/01 00:08:48;;;;;;;17.37;8.30;;;-1.70;99.90;;;;;;4154679;28;20454;-74
2023/03/01 00:10:50;;;;;;;16.77;7.20;;;-1.70;99.90;;;;;;4179014;28;20489;-76
2023/03/01 00:12:52;;;;;;;17.03;7.93;;;-1.80;99.90;;;;;;4178414;28;20809;-75
2023/03/01 00:14:54;;;;;;;15.30;7.50;;;-1.80;99.90;;;;;;4180785;28;20457;-75
2023/03/01 00:16:58;;;;;;;16.87;7.73;;;-1.80;99.90;;;;;;4160842;28;20505;-75
2023/03/01 00:19:00;;;;;;;17.70;8.10;;;-1.80;99.90;;;;;;4179225;28;21010;-74
2023/03/01 00:21:02;;;;;;;15.37;7.20;;;-1.80;99.90;;;;;;4179934;28;20449;-75
2023/03/01 00:23:04;;;;;;;17.10;7.43;;;-1.80;99.90;;;;;;4179196;28;20463;-76
2023/03/01 00:25:06;;;;;;;14.10;7.20;;;-1.80;99.90;;;;;;4179009;28;20488;-74
2023/03/01 00:27:08;;;;;;;18.67;7.90;;;-1.80;99.90;;;;;;4179586;28;20488;-75
2023/03/01 00:29:10;;;;;;;15.93;7.23;;;-1.80;99.90;;;;;;4178751;28;20461;-75
2023/03/01 00:31:13;;;;;;;12.93;7.27;;;-1.80;99.90;;;;;;4180716;28;20978;-74
2023/03/01 00:33:17;;;;;;;15.87;7.10;;;-1.80;99.90;;;;;;4176692;28;20457;-75
2023/03/01 00:35:19;;;;;;;14.67;6.77;;;-1.80;99.90;;;;;;4175379;28;20496;-75
2023/03/01 00:37:21;;;;;;;17.53;7.70;;;-1.80;99.90;;;;;;4178546;28;20453;-75
2023/03/01 00:39:23;;;;;;;16.67;7.30;;;-1.90;99.90;;;;;;4177997;28;20541;-75
2023/03/01 00:41:26;;;;;;;13.23;6.93;;;-1.90;99.90;;;;;;4177023;28;20523;-75
2023/03/01 00:43:28;;;;;;;13.13;7.00;;;-1.90;99.90;;;;;;4178379;28;20565;-74
2023/03/01 00:45:33;;;;;;;12.40;6.50;;;-1.90;99.90;;;;;;4179251;28;21117;-76
2023/03/01 00:47:35;;;;;;;15.77;7.03;;;-1.90;99.90;;;;;;4177797;28;20970;-75
2023/03/01 00:49:39;;;;;;;15.10;6.63;;;-1.90;99.90;;;;;;4179502;28;20476;-75
2023/03/01 00:51:41;;;;;;;15.23;7.43;;;-1.90;99.90;;;;;;4175949;28;20468;-73
2023/03/01 00:53:44;;;;;;;14.13;7.07;;;-1.90;99.90;;;;;;4177542;28;20492;-74
2023/03/01 00:55:46;;;;;;;13.77;6.93;;;-2.00;99.90;;;;;;4177855;28;20523;-74
2023/03/01 00:57:47;;;;;;;13.27;6.47;;;-2.00;99.90;;;;;;4179395;28;20970;-75
2023/03/01 00:59:49;;;;;;;12.47;6.43;;;-2.00;99.90;;;;;;4158296;28;20474;-74
2023/03/01 01:01:51;;;;;;;14.63;6.90;;;-2.00;99.90;;;;;;4179093;28;20461;-74
2023/03/01 01:03:55;;;;;;;13.30;6.70;;;-2.00;99.90;;;;;;4178118;28;20548;-72
2023/03/01 01:05:59;;;;;;;16.57;7.00;;;-2.00;99.90;;;;;;4176306;28;20485;-74
2023/03/01 01:08:01;;;;;;;13.37;7.20;;;-2.10;99.90;;;;;;4159140;28;21028;-75
2023/03/01 01:10:03;;;;;;;14.73;6.50;;;-2.10;99.90;;;;;;4176919;28;20465;-75
2023/03/01 01:12:05;;;;;;;12.13;6.37;;;-2.10;99.90;;;;;;4176950;28;21490;-75
2023/03/01 01:14:07;;;;;;;13.80;6.73;;;-2.10;99.90;;;;;;4174615;28;20524;-74
2023/03/01 01:16:09;;;;;;;14.73;6.83;;;-2.10;99.90;;;;;;4175796;28;20942;-74
2023/03/01 01:18:11;;;;;;;14.80;6.67;;;-2.10;99.90;;;;;;4176615;28;20488;-74
2023/03/01 01:20:13;;;;;;;16.23;7.13;;;-2.10;99.90;;;;;;4178754;28;21125;-75
2023/03/01 01:22:16;;;;;;;15.30;6.27;;;-2.20;99.90;;;;;;4178254;28;20454;-75
2023/03/01 01:24:19;;;;;;;14.20;6.90;;;-2.20;99.90;;;;;;4161878;28;20497;-75
2023/03/01 01:26:23;;;;;;;14.57;6.80;;;-2.20;99.90;;;;;;4178216;28;20500;-76
2023/03/01 01:28:25;;;;;;;14.60;6.43;;;-2.20;99.90;;;;;;4160307;28;21059;-76
2023/03/01 01:30:26;;;;;;;16.03;6.97;;;-2.10;99.90;;;;;;4178324;28;20449;-74
2023/03/01 01:32:30;;;;;;;14.83;6.83;;;-2.20;99.90;;;;;;4177303;28;20461;-75
2023/03/01 01:34:31;;;;;;;13.67;6.60;;;-2.20;99.90;;;;;;4176672;28;20580;-75
2023/03/01 01:36:34;;;;;;;15.47;6.80;;;-2.20;99.90;;;;;;4175436;28;20853;-75
2023/03/01 01:38:38;;;;;;;14.93;6.40;;;-2.20;99.90;;;;;;4176322;28;21002;-76
2023/03/01 01:40:44;;;;;;;12.50;6.77;;;-2.20;99.90;;;;;;4177650;28;20486;-74
2023/03/01 01:42:46;;;;;;;14.43;6.67;;;-2.30;99.90;;;;;;4174613;28;20469;-76
2023/03/01 01:44:49;;;;;;;14.93;6.33;;;-2.30;99.90;;;;;;4176965;28;20579;-75
2023/03/01 01:46:54;;;;;;;13.17;6.27;;;-2.10;99.90;;;;;;4177689;28;20593;-76
2023/03/01 01:49:01;;;;;;;14.10;6.13;;;-2.30;99.90;;;;;;4174398;28;21043;-74
2023/03/01 01:51:03;;;;;;;14.57;7.10;;;-2.30;99.90;;;;;;4176923;28;20473;-75
2023/03/01 01:53:10;;;;;;;14.30;7.03;;;-2.30;99.90;;;;;;4175897;28;20465;-75
2023/03/01 01:55:17;;;;;;;12.83;6.33;;;-2.40;99.90;;;;;;4175410;28;20562;-74
2023/03/01 01:57:22;;;;;;;15.27;6.53;;;-2.30;99.90;;;;;;4175945;28;20980;-76
2023/03/01 01:59:25;;;;;;;13.93;6.80;;;-2.40;99.90;;;;;;4175471;28;20560;-75
2023/03/01 02:01:27;;;;;;;13.57;6.73;;;-2.40;99.90;;;;;;4174475;28;20473;-75
2023/03/01 02:03:36;;;;;;;12.43;6.28;;;-2.40;99.90;;;;;;4175506;28;20472;-75
2023/03/01 02:05:44;;;;;;;17.63;6.63;;;-2.40;99.90;;;;;;4174603;28;20266;-75
2023/03/01 02:07:47;;;;;;;17.47;7.00;;;-2.50;99.90;;;;;;4174971;28;20468;-74
2023/03/01 02:09:52;;;;;;;15.32;7.05;;;-2.50;99.90;;;;;;4175552;28;20556;-73
2023/03/01 02:11:55;;;;;;;14.27;7.30;;;-2.50;99.90;;;;;;4175399;28;21004;-74
2023/03/01 02:13:57;;;;;;;13.60;7.00;;;-2.50;99.90;;;;;;4175960;28;20986;-74
2023/03/01 02:16:00;;;;;;;17.97;7.20;;;-2.50;99.90;;;;;;4175435;28;20867;-74
2023/03/01 02:18:03;;;;;;;11.77;6.53;;;-2.50;99.90;;;;;;4177531;28;20469;-75
2023/03/01 02:20:14;;;;;;;14.43;7.20;;;-2.50;99.90;;;;;;4175671;28;20774;-73
2023/03/01 02:22:24;;;;;;;13.38;6.20;;;-2.50;99.90;;;;;;4176783;28;20564;-75
2023/03/01 02:24:32;;;;;;;15.35;6.75;;;-2.60;99.90;;;;;;4175825;28;20242;-73
2023/03/01 02:26:40;;;;;;;11.90;5.87;;;-2.70;99.90;;;;;;4176736;28;20321;-74
2023/03/01 02:28:45;;;;;;;13.05;6.13;;;-2.60;99.90;;;;;;4176406;28;20507;-73
2023/03/01 02:33:05;;;;;;;12.87;6.87;;;-2.60;99.90;;;;;;4174917;28;20460;-74
2023/03/01 02:35:09;;;;;;;14.37;6.50;;;-2.60;99.90;;;;;;4175422;28;20480;-72
2023/03/01 02:37:20;;;;;;;13.80;6.63;;;-2.70;99.90;;;;;;4175833;28;21056;-74
2023/03/01 02:39:27;;;;;;;13.27;6.17;;;-2.70;99.90;;;;;;4177176;28;20497;-72
2023/03/01 02:41:40;;;;;;;13.97;6.77;;;-2.70;99.90;;;;;;4173794;28;20485;-74
2023/03/01 02:43:43;;;;;;;14.30;6.53;;;-2.70;99.90;;;;;;4175488;28;20497;-75
2023/03/01 02:45:50;;;;;;;15.95;6.80;;;-2.70;99.90;;;;;;4175164;28;20543;-73
2023/03/01 02:47:55;;;;;;;14.23;6.93;;;-2.70;99.90;;;;;;4176002;28;20241;-74
2023/03/01 02:49:57;;;;;;;12.07;6.60;;;-2.70;99.90;;;;;;4173951;28;21212;-74
2023/03/01 02:52:15;;;;;;;14.38;6.78;;;-2.70;99.90;;;;;;4174270;28;20235;-74
2023/03/01 02:54:26;;;;;;;12.23;6.43;;;-2.80;99.90;;;;;;4174756;28;20221;-74
2023/03/01 02:56:29;;;;;;;13.15;6.60;;;-2.80;99.90;;;;;;4175735;28;20419;-75
2023/03/01 02:58:30;;;;;;;12.80;6.05;;;-2.80;99.90;;;;;;4177455;28;20245;-74
2023/03/01 03:00:39;;;;;;;12.77;6.20;;;-2.80;99.90;;;;;;4176279;28;20212;-73
2023/03/01 03:02:41;;;;;;;15.67;6.87;;;-2.80;99.90;;;;;;4176930;28;20472;-75
2023/03/01 03:04:43;;;;;;;15.60;7.60;;;-2.80;99.90;;;;;;4176382;28;20453;-74
2023/03/01 03:06:46;;;;;;;16.27;6.80;;;-2.80;99.90;;;;;;4174890;28;20257;-74
2023/03/01 03:08:48;;;;;;;13.45;6.32;;;-2.90;99.90;;;;;;4176179;28;20489;-74
2023/03/01 03:10:50;;;;;;;14.45;6.75;;;-2.90;99.90;;;;;;4174095;28;20891;-75
2023/03/01 03:12:53;;;;;;;14.17;6.47;;;-2.90;99.90;;;;;;4175017;28;20206;-74
2023/03/01 03:14:55;;;;;;;13.73;6.68;;;-2.90;99.90;;;;;;4173221;28;20502;-74
2023/03/01 03:16:59;;;;;;;18.57;6.83;;;-2.90;99.90;;;;;;4174651;28;20313;-75
2023/03/01 03:19:04;;;;;;;14.27;6.30;;;-2.90;99.90;;;;;;4174119;28;20988;-74
2023/03/01 03:21:10;;;;;;;13.27;6.80;;;-2.90;99.90;;;;;;4155191;28;20451;-74
2023/03/01 03:23:13;;;;;;;14.30;6.27;;;-2.90;99.90;;;;;;4157897;28;20560;-74
2023/03/01 03:25:15;;;;;;;15.93;7.37;;;-2.90;99.90;;;;;;4160835;28;20462;-75
2023/03/01 03:27:17;;;;;;;14.68;7.28;;;-2.90;99.90;;;;;;4154919;28;20453;-75
2023/03/01 03:29:19;;;;;;;15.67;6.10;;;-3.00;99.90;;;;;;4158110;28;21087;-75
2023/03/01 03:31:21;;;;;;;16.10;6.78;;;-3.00;99.90;;;;;;4176014;28;20503;-74
2023/03/01 03:33:24;;;;;;;16.77;7.30;;;-3.00;99.90;;;;;;4174571;28;20640;-73
2023/03/01 03:35:29;;;;;;;17.67;6.97;;;-3.00;99.90;;;;;;4175612;28;20236;-74
2023/03/01 03:39:54;;;;;;;14.88;6.57;;;-3.00;99.90;;;;;;4175001;28;20281;-74
2023/03/01 03:41:56;;;;;;;14.27;6.72;;;-3.00;99.90;;;;;;4175826;28;20222;-73
2023/03/01 03:43:58;;;;;;;15.90;7.03;;;-3.10;99.90;;;;;;4173824;28;20210;-72
2023/03/01 03:46:00;;;;;;;13.40;6.20;;;-3.10;99.90;;;;;;4175896;28;20546;-74
2023/03/01 03:48:06;;;;;;;14.30;7.40;;;-3.10;99.90;;;;;;4157381;28;20227;-74
2023/03/01 03:50:13;;;;;;;12.63;6.72;;;-3.10;99.90;;;;;;4174034;28;20488;-75
2023/03/01 03:52:15;;;;;;;16.60;7.23;;;-3.10;99.90;;;;;;4173399;28;20203;-73
2023/03/01 03:54:18;;;;;;;14.93;6.75;;;-3.10;99.90;;;;;;4174490;28;20461;-73
2023/03/01 03:56:19;;;;;;;14.98;7.18;;;-3.10;99.90;;;;;;4174913;28;20226;-74
2023/03/01 03:58:23;;;;;;;14.32;6.90;;;-3.10;99.90;;;;;;4174979;28;20224;-72
2023/03/01 04:00:25;;;;;;;14.43;6.18;;;-3.10;99.90;;;;;;4174444;28;20226;-73
2023/03/01 04:02:27;;;;;;;15.27;7.60;;;-3.10;99.90;;;;;;4154047;28;20584;-73
2023/03/01 04:04:29;;;;;;;17.27;7.90;;;-3.20;99.90;;;;;;4176135;28;21008;-74
2023/03/01 04:06:33;;;;;;;15.60;7.20;;;-3.20;99.90;;;;;;4172829;28;20472;-74
2023/03/01 04:08:35;;;;;;;16.05;6.85;;;-3.20;99.90;;;;;;4157726;28;20562;-73
2023/03/01 04:10:39;;;;;;;18.05;7.53;;;-3.20;99.90;;;;;;4173736;28;20293;-73
2023/03/01 04:12:43;;;;;;;22.45;7.45;;;-3.20;99.90;;;;;;4171637;28;20301;-74
2023/03/01 04:14:44;;;;;;;13.80;6.40;;;-3.20;99.90;;;;;;4172991;28;20237;-73
2023/03/01 04:16:46;;;;;;;17.67;7.53;;;-3.20;99.90;;;;;;4155620;28;20508;-74
2023/03/01 04:18:48;;;;;;;15.68;7.40;;;-3.20;99.90;;;;;;4171834;28;20210;-71
2023/03/01 04:20:51;;;;;;;17.50;7.97;;;-3.30;99.90;;;;;;4172989;28;20226;-72
2023/03/01 04:23:10;;;;;;;16.05;7.32;;;-3.30;99.90;;;;;;4176355;28;20211;-73
2023/03/01 04:25:13;;;;;;;16.20;7.38;;;-3.00;99.90;;;;;;4177329;28;20222;-74
2023/03/01 04:27:15;;;;;;;19.45;7.45;;;-3.30;99.90;;;;;;4171318;28;20261;-72
2023/03/01 04:29:17;;;;;;;14.20;7.10;;;-3.30;99.90;;;;;;4175961;28;20233;-72
2023/03/01 04:31:21;;;;;;;14.67;7.00;;;-3.30;99.90;;;;;;4178706;28;20198;-72
2023/03/01 04:33:23;;;;;;;16.42;7.50;;;-3.30;99.90;;;;;;4180768;28;20445;-72
2023/03/01 04:35:25;;;;;;;16.58;7.72;;;-3.30;99.90;;;;;;4163799;28;20258;-72
2023/03/01 04:37:27;;;;;;;15.32;6.97;;;-3.30;99.90;;;;;;4180606;28;20209;-73
2023/03/01 04:39:32;;;;;;;17.57;8.17;;;-3.30;99.90;;;;;;4177315;28;20264;-72
2023/03/01 04:41:34;;;;;;;20.60;7.93;;;-3.30;99.90;;;;;;4179305;28;20452;-76
2023/03/01 04:43:36;;;;;;;17.38;7.75;;;-3.30;99.90;;;;;;4177731;28;20493;-72
2023/03/01 04:45:41;;;;;;;17.77;8.45;;;-3.30;99.90;;;;;;4160969;28;20235;-78
2023/03/01 04:47:45;;;;;;;18.83;8.55;;;-3.30;99.90;;;;;;4168802;28;20273;-78
2023/03/01 04:49:47;;;;;;;17.02;7.88;;;-2.90;99.90;;;;;;4177566;28;20214;-71
2023/03/01 04:51:49;;;;;;;19.33;8.45;;;-3.30;99.90;;;;;;4174927;28;20639;-72
2023/03/01 04:53:51;;;;;;;17.15;8.75;;;-3.30;99.90;;;;;;4175248;28;20206;-70
2023/03/01 04:55:55;;;;;;;24.00;8.50;;;-3.30;99.90;;;;;;4154628;28;20263;-71
2023/03/01 04:57:57;;;;;;;19.23;8.73;;;-3.30;99.90;;;;;;4157290;28;20453;-73
2023/03/01 04:59:59;;;;;;;18.30;9.02;;;-3.30;99.90;;;;;;4174033;28;20297;-72
2023/03/01 05:02:01;;;;;;;19.20;8.07;;;-3.30;99.90;;;;;;4170922;28;20203;-74
2023/03/01 05:04:05;;;;;;;18.52;8.70;;;-3.30;99.90;;;;;;4170246;28;20256;-76
2023/03/01 05:06:07;;;;;;;16.73;8.38;;;-3.30;99.90;;;;;;4178118;28;20214;-71
2023/03/01 05:08:17;;;;;;;19.92;8.18;;;-3.30;99.90;;;;;;4174087;28;20207;-71
2023/03/01 05:10:19;;;;;;;19.33;8.75;;;-3.30;99.90;;;;;;4161741;28;20238;-71
2023/03/01 05:12:22;;;;;;;16.77;7.82;;;-3.30;99.90;;;;;;4172149;28;20665;-71
2023/03/01 05:14:24;;;;;;;17.88;7.93;;;-3.30;99.90;;;;;;4178002;28;20688;-71
2023/03/01 05:16:26;;;;;;;17.15;7.97;;;-3.30;99.90;;;;;;4178295;28;20222;-71
2023/03/01 05:18:30;;;;;;;16.38;7.38;;;-3.30;99.90;;;;;;4179552;28;20207;-72
2023/03/01 05:20:32;;;;;;;19.90;7.95;;;-3.30;99.90;;;;;;4176749;28;20214;-74
2023/03/01 05:22:34;;;;;;;17.77;8.30;;;-3.40;99.90;;;;;;4174625;28;20203;-73
2023/03/01 05:24:36;;;;;;;16.15;7.40;;;-3.30;99.90;;;;;;4174825;28;20230;-73
2023/03/01 05:26:41;;;;;;;15.15;7.55;;;-3.40;99.90;;;;;;4173775;28;20267;-75
2023/03/01 05:28:44;;;;;;;16.83;7.32;;;-3.40;99.90;;;;;;4174154;28;20242;-73
2023/03/01 05:30:47;;;;;;;19.90;7.65;;;-3.40;99.90;;;;;;4172549;28;20233;-74
2023/03/01 05:32:55;;;;;;;15.73;7.15;;;-3.40;99.90;;;;;;4172218;28;20333;-71
2023/03/01 05:34:57;;;;;;;16.40;7.40;;;-3.40;99.90;;;;;;4171992;28;20305;-78
2023/03/01 05:36:59;;;;;;;18.10;7.75;;;-3.50;99.90;;;;;;4175056;28;20285;-74
2023/03/01 05:39:01;;;;;;;16.75;7.38;;;-3.50;99.90;;;;;;4174932;28;20230;-71
2023/03/01 05:41:03;;;;;;;18.00;7.70;;;-3.50;99.90;;;;;;4175275;28;20369;-71
2023/03/01 05:43:05;;;;;;;14.85;7.18;;;-3.50;99.90;;;;;;4176765;28;20571;-71
2023/03/01 05:45:12;;;;;;;15.13;7.15;;;-3.50;99.90;;;;;;4175439;28;20689;-72
2023/03/01 05:47:14;;;;;;;18.23;7.72;;;-3.50;99.90;;;;;;4173002;28;20206;-72
2023/03/01 05:49:16;;;;;;;16.33;7.88;;;-3.20;99.90;;;;;;4171430;28;20241;-72
2023/03/01 05:51:18;;;;;;;14.52;7.13;;;-3.80;99.90;;;;;;4175526;28;20734;-71
2023/03/01 05:53:21;;;;;;;17.08;7.63;;;-3.50;99.90;;;;;;4172573;28;20695;-72
2023/03/01 05:55:23;;;;;;;16.20;7.47;;;-3.60;99.90;;;;;;4173703;28;20315;-75
2023/03/01 05:57:25;;;;;;;14.63;7.00;;;-3.60;99.90;;;;;;4170158;28;20678;-74
2023/03/01 05:59:27;;;;;;;16.77;7.47;;;-3.60;99.90;;;;;;4173037;28;20221;-75
2023/03/01 06:01:30;;;;;;;17.27;7.97;;;-3.60;99.90;;;;;;4175563;28;20623;-73
2023/03/01 06:03:34;;;;;;;19.63;7.85;;;-3.60;99.90;;;;;;4172256;28;20579;-72
2023/03/01 06:05:36;;;;;;;17.58;7.50;;;-3.70;99.90;;;;;;4171411;28;20298;-71
2023/03/01 06:07:38;;;;;;;17.67;7.60;;;-3.70;99.90;;;;;;4173387;28;20206;-73
2023/03/01 06:09:40;;;;;;;20.65;9.07;;;-3.60;99.90;;;;;;4156213;28;20318;-73
2023/03/01 06:11:42;;;;;;;19.88;8.45;;;-3.70;99.90;;;;;;4172485;28;20203;-73
2023/03/01 06:13:44;;;;;;;17.63;8.25;;;-3.70;99.90;;;;;;4173457;28;20334;-75
2023/03/01 06:15:46;;;;;;;20.67;9.02;;;-3.60;99.90;;;;;;4171263;28;20234;-72
2023/03/01 06:17:50;;;;;;;20.52;9.05;;;-3.70;99.90;;;;;;4172495;28;20233;-73
2023/03/01 06:19:52;;;;;;;18.10;8.80;;;-3.60;99.90;;;;;;4159355;28;20223;-71
2023/03/01 06:21:53;;;;;;;19.02;8.20;;;-3.60;99.90;;;;;;4178246;28;20199;-71
2023/03/01 06:23:55;;;;;;;20.25;9.40;;;-3.70;99.90;;;;;;4177324;28;20202;-72
2023/03/01 06:25:57;;;;;;;18.10;8.57;;;-3.70;99.90;;;;;;4172403;28;20633;-71
2023/03/01 06:27:59;;;;;;;19.63;9.00;;;-3.60;99.90;;;;;;4179360;28;20793;-75
2023/03/01 06:30:01;;;;;;;19.48;8.52;;;-3.60;99.90;;;;;;4174624;28;20209;-72
2023/03/01 06:32:04;;;;;;;19.92;9.13;;;-3.60;99.90;;;;;;4176538;28;20209;-71
2023/03/01 06:34:07;;;;;;;20.45;8.82;;;-3.60;99.90;;;;;;4160356;28;20207;-71
2023/03/01 06:36:10;;;;;;;22.13;8.82;;;-3.60;99.90;;;;;;4177654;28;20222;-74
2023/03/01 06:38:14;;;;;;;17.65;8.57;;;-3.60;99.90;;;;;;4176410;28;20202;-71
2023/03/01 06:40:16;;;;;;;17.17;7.78;;;-3.60;99.90;;;;;;4175251;28;20213;-72
2023/03/01 06:42:18;;;;;;;18.98;8.88;;;-3.60;99.90;;;;;;4177148;28;20645;-73
2023/03/01 06:44:20;;;;;;;19.55;8.75;;;-3.60;99.90;;;;;;4174855;28;20639;-72
2023/03/01 06:46:22;;;;;;;17.35;8.60;;;-3.50;99.90;;;;;;4159498;28;20231;-71
2023/03/01 06:48:24;;;;;;;20.33;8.80;;;-3.50;99.90;;;;;;4175270;28;20309;-72
2023/03/01 06:50:27;;;;;;;22.08;9.18;;;-3.50;99.90;;;;;;4153253;28;20224;-71
2023/03/01 06:52:30;;;;;;;18.05;8.52;;;-3.50;99.90;;;;;;4174996;28;20577;-73
2023/03/01 06:54:32;;;;;;;18.73;8.88;;;-3.50;99.90;;;;;;4176311;28;20212;-73
2023/03/01 06:56:34;;;;;;;18.40;8.27;;;-3.50;99.90;;;;;;4175517;28;20370;-72
2023/03/01 06:58:36;;;;;;;18.52;8.60;;;-3.40;99.90;;;;;;4176375;28;20217;-71
2023/03/01 07:00:40;;;;;;;21.67;9.18;;;-3.40;99.90;;;;;;4176082;28;20219;-76
2023/03/01 07:02:43;;;;;;;18.15;8.65;;;-3.40;99.90;;;;;;4176356;28;20260;-72
2023/03/01 07:04:45;;;;;;;18.83;8.75;;;-3.40;99.90;;;;;;4176442;28;20213;-72
2023/03/01 07:06:54;;;;;;;18.05;8.32;;;-3.40;99.90;;;;;;4172104;28;20233;-71
2023/03/01 07:08:56;;;;;;;18.33;8.75;;;-3.40;99.90;;;;;;4173109;28;20234;-73
2023/03/01 07:11:01;;;;;;;23.10;9.15;;;-3.30;99.90;;;;;;4178095;28;20245;-71
2023/03/01 07:13:03;;;;;;;19.20;8.57;;;-3.30;99.90;;;;;;4177666;28;20358;-71
2023/03/01 07:15:09;;;;;;;19.02;8.85;;;-3.40;99.90;;;;;;4175318;28;20217;-71
2023/03/01 07:17:11;;;;;;;17.90;8.23;;;-3.30;99.90;;;;;;4172905;28;20229;-71
2023/03/01 07:19:13;;;;;;;20.40;8.95;;;-3.30;99.90;;;;;;4178363;28;20245;-71
2023/03/01 07:21:16;;;;;;;17.55;8.65;;;-3.30;99.90;;;;;;4178596;28;20253;-71
2023/03/01 07:23:19;;;;;;;17.15;8.25;;;-3.20;99.90;;;;;;4155501;28;20218;-71
2023/03/01 07:25:21;;;;;;;17.88;8.23;;;-3.30;99.90;;;;;;4174185;28;20199;-72
2023/03/01 07:27:25;;;;;;;21.92;9.18;;;-3.20;99.90;;;;;;4177756;28;20293;-73
2023/03/01 07:29:28;;;;;;;16.08;8.07;;;-3.20;99.90;;;;;;4175512;28;20842;-72
2023/03/01 07:31:30;;;;;;;18.63;8.65;;;-3.10;99.90;;;;;;4175423;28;20729;-71
2023/03/01 07:33:32;;;;;;;20.20;8.10;;;-3.10;99.90;;;;;;4169903;28;20266;-73
2023/03/01 07:35:34;;;;;;;20.43;8.47;;;-3.10;99.90;;;;;;4176153;28;20261;-70
2023/03/01 07:37:36;;;;;;;19.10;9.00;;;-3.10;99.90;;;;;;4178725;28;20958;-71
2023/03/01 07:39:39;;;;;;;21.13;10.05;;;-3.00;99.90;;;;;;4178518;28;20206;-72
2023/03/01 07:41:41;;;;;;;19.17;8.70;;;-3.00;99.90;;;;;;4173446;28;20244;-70
2023/03/01 07:43:43;;;;;;;21.80;9.10;;;-3.00;99.90;;;;;;4176131;28;20452;-71
2023/03/01 07:45:45;;;;;;;18.73;8.63;;;-2.90;99.90;;;;;;4177535;28;20488;-71
2023/03/01 07:47:47;;;;;;;23.17;9.00;;;-2.90;99.90;;;;;;4175129;28;20207;-71
2023/03/01 07:49:49;;;;;;;18.43;9.37;;;-2.90;99.90;;;;;;4173657;28;20540;-71
2023/03/01 07:51:50;;;;;;;18.90;8.47;;;-2.90;99.90;;;;;;4174384;28;20507;-71
2023/03/01 07:53:52;;;;;;;16.37;8.47;;;-2.80;99.90;;;;;;4176577;28;20493;-72
2023/03/01 07:56:03;;;;;;;23.23;9.57;;;-2.80;99.90;;;;;;4176725;28;21045;-73
2023/03/01 07:58:05;;;;;;;18.17;8.77;;;-2.70;99.90;;;;;;4171695;28;20500;-71
2023/03/01 08:00:08;;;;;;;22.47;9.57;;;-2.70;99.90;;;;;;4175992;28;21003;-72
2023/03/01 08:02:11;;;;;;;18.33;9.00;;;-2.70;99.90;;;;;;4179962;28;20946;-73
2023/03/01 08:04:13;;;;;;;25.77;10.00;;;-2.70;99.90;;;;;;4179432;28;20510;-71
2023/03/01 08:06:17;;;;;;;23.00;10.27;;;-2.60;99.90;;;;;;4158465;28;20521;-72
2023/03/01 08:08:19;;;;;;;21.83;9.70;;;-2.50;99.90;;;;;;4177478;28;20540;-71
2023/03/01 08:10:21;;;;;;;24.33;11.00;;;-2.50;99.90;;;;;;4176271;28;20448;-73
2023/03/01 08:12:24;;;;;;;20.00;9.13;;;-2.50;99.90;;;;;;4179496;28;20485;-71
2023/03/01 08:14:26;;;;;;;21.97;10.17;;;-2.40;99.90;;;;;;4175588;28;20511;-70
2023/03/01 08:16:28;;;;;;;22.53;10.03;;;-2.40;99.90;;;;;;4177862;28;20539;-72
2023/03/01 08:18:30;;;;;;;26.73;10.40;;;-2.40;99.90;;;;;;4177438;28;20481;-71
2023/03/01 08:20:32;;;;;;;20.97;10.10;;;-2.30;99.90;;;;;;4169902;28;20532;-70
2023/03/01 08:22:34;;;;;;;27.57;10.90;;;-2.30;99.90;;;;;;4180448;28;20445;-71
2023/03/01 08:24:36;;;;;;;22.93;10.83;;;-2.20;99.90;;;;;;4169885;28;20966;-71
2023/03/01 08:26:38;;;;;;;29.37;12.13;;;-2.20;99.90;;;;;;4167297;28;20474;-71
2023/03/01 08:28:42;;;;;;;26.13;10.67;;;-2.20;99.90;;;;;;4176457;28;20449;-75
2023/03/01 08:30:44;;;;;;;28.07;12.37;;;-2.10;99.90;;;;;;4177271;28;20897;-74
2023/03/01 08:32:46;;;;;;;24.37;10.70;;;-2.00;99.90;;;;;;4178579;28;20453;-73
2023/03/01 08:34:48;;;;;;;30.60;11.57;;;-2.00;99.90;;;;;;4161793;28;21132;-74
2023/03/01 08:36:52;;;;;;;29.23;11.33;;;-2.00;99.90;;;;;;4161879;28;20923;-72
2023/03/01 08:38:54;;;;;;;27.47;11.40;;;-1.90;99.90;;;;;;4179159;28;20454;-75
2023/03/01 08:40:58;;;;;;;24.53;11.40;;;-1.90;99.90;;;;;;4176695;28;20449;-72
2023/03/01 08:42:59;;;;;;;20.83;10.20;;;-1.80;99.90;;;;;;4176854;28;20458;-73
2023/03/01 08:45:03;;;;;;;25.33;11.67;;;-1.70;99.90;;;;;;4175690;28;20553;-75
2023/03/01 08:47:05;;;;;;;22.67;9.67;;;-1.70;99.90;;;;;;4176768;28;20537;-75
2023/03/01 08:49:07;;;;;;;24.93;10.93;;;-1.60;99.90;;;;;;4175794;28;21440;-74
2023/03/01 08:51:10;;;;;;;27.40;10.73;;;-1.60;99.90;;;;;;4160972;28;20553;-74
2023/03/01 08:53:12;;;;;;;30.17;12.80;;;-1.50;99.90;;;;;;4161208;28;20462;-74
2023/03/01 08:55:16;;;;;;;25.47;11.17;;;-1.50;99.90;;;;;;4177397;28;20453;-73
2023/03/01 08:57:18;;;;;;;24.80;10.87;;;-1.40;99.90;;;;;;4176783;28;20477;-75
2023/03/01 08:59:20;;;;;;;28.47;11.30;;;-1.40;99.90;;;;;;4178088;28;20541;-73
2023/03/01 09:01:23;;;;;;;27.57;11.47;;;-1.30;99.90;;;;;;4178432;28;20466;-74
2023/03/01 09:03:25;;;;;;;28.20;12.40;;;-1.20;99.90;;;;;;4179416;28;20442;-74
2023/03/01 09:05:27;;;;;;;28.33;11.17;;;-1.10;99.90;;;;;;4177022;28;20537;-74
2023/03/01 09:07:29;;;;;;;24.00;11.27;;;-1.10;99.90;;;;;;4178621;28;20481;-73
2023/03/01 09:09:31;;;;;;;31.50;11.77;;;-1.00;99.90;;;;;;4161497;28;20457;-74
2023/03/01 09:11:34;;;;;;;27.87;12.03;;;-1.00;99.90;;;;;;4177478;28;20469;-74
2023/03/01 09:13:36;;;;;;;28.67;12.43;;;-0.80;99.90;;;;;;4177770;28;20530;-75
2023/03/01 09:15:39;;;;;;;26.77;12.27;;;-0.80;99.90;;;;;;4153400;28;20894;-75
2023/03/01 09:17:43;;;;;;;31.20;12.47;;;-0.80;99.90;;;;;;4175998;28;20509;-75
2023/03/01 09:19:45;;;;;;;28.10;12.50;;;-0.70;99.90;;;;;;4176342;28;20453;-74
2023/03/01 09:21:52;;;;;;;28.13;12.27;;;-0.60;99.90;;;;;;4177689;28;20458;-74
2023/03/01 09:23:53;;;;;;;29.77;12.47;;;-0.50;99.90;;;;;;4175545;28;20964;-74
2023/03/01 09:25:55;;;;;;;27.07;12.27;;;-0.40;99.90;;;;;;4176518;28;20513;-73
2023/03/01 09:27:57;;;;;;;24.03;11.60;;;-0.30;99.90;;;;;;4175860;28;21066;-73
2023/03/01 09:29:59;;;;;;;32.47;13.07;;;-0.20;99.90;;;;;;4154489;28;20493;-74
2023/03/01 09:32:01;;;;;;;27.33;11.63;;;-0.20;99.90;;;;;;4177188;28;20459;-74
2023/03/01 09:34:04;;;;;;;28.13;11.93;;;-0.20;99.90;;;;;;4159685;28;20957;-74
2023/03/01 09:36:10;;;;;;;26.90;11.77;;;-0.10;99.90;;;;;;4174675;28;20567;-74
2023/03/01 09:38:13;;;;;;;28.57;11.50;;;0.00;99.90;;;;;;4177370;28;20582;-74
2023/03/01 09:40:20;;;;;;;26.23;11.57;;;0.10;99.90;;;;;;4176482;28;20452;-74
2023/03/01 09:42:22;;;;;;;26.17;11.87;;;0.10;99.90;;;;;;4176321;28;20835;-73
2023/03/01 09:44:37;;;;;;;30.13;11.97;;;0.10;99.90;;;;;;4176318;28;20466;-74
2023/03/01 09:46:43;;;;;;;28.83;11.87;;;0.20;99.90;;;;;;4176460;28;20988;-75
2023/03/01 09:48:53;;;;;;;29.97;12.93;;;0.20;99.90;;;;;;4177371;28;20455;-74
2023/03/01 09:50:58;;;;;;;29.40;12.73;;;0.30;99.90;;;;;;4176794;28;20446;-76
2023/03/01 09:53:03;;;;;;;26.93;12.37;;;0.40;99.90;;;;;;4160387;28;20999;-74
2023/03/01 09:55:12;;;;;;;26.70;12.07;;;0.40;99.90;;;;;;4177030;28;20481;-72
2023/03/01 09:57:21;;;;;;;27.97;11.60;;;0.50;99.90;;;;;;4177640;28;20483;-75
2023/03/01 09:59:29;;;;;;;27.37;11.73;;;0.60;99.90;;;;;;4176151;28;20455;-74
2023/03/01 10:01:36;;;;;;;27.40;12.43;;;0.60;99.90;;;;;;4159597;28;20533;-74
2023/03/01 10:03:43;;;;;;;29.20;12.90;;;0.70;99.90;;;;;;4178235;28;20447;-73
2023/03/01 10:05:53;;;;;;;28.60;12.47;;;0.70;99.90;;;;;;4176346;28;21098;-73
2023/03/01 10:08:15;;;;;;;25.60;12.10;;;0.80;99.90;;;;;;4177657;28;20510;-74
2023/03/01 10:10:28;;;;;;;30.33;12.50;;;0.90;99.90;;;;;;4175812;28;20466;-74
2023/03/01 10:12:36;;;;;;;28.23;11.80;;;1.00;99.90;;;;;;4178093;28;20487;-72
2023/03/01 10:14:46;;;;;;;31.00;12.27;;;1.00;99.90;;;;;;4176498;28;20470;-74
2023/03/01 10:16:53;;;;;;;28.67;12.90;;;1.10;99.90;;;;;;4175327;28;21390;-74
2023/03/01 10:19:00;;;;;;;27.53;12.33;;;1.20;99.90;;;;;;4176929;28;20477;-73
2023/03/01 10:21:04;;;;;;;26.17;11.70;;;1.40;99.90;;;;;;4175121;28;20499;-74
2023/03/01 10:23:10;;;;;;;28.67;11.93;;;1.40;99.90;;;;;;4158347;28;20472;-75
2023/03/01 10:25:15;;;;;;;27.20;11.90;;;1.50;99.90;;;;;;4176826;28;20916;-73
2023/03/01 10:27:22;;;;;;;26.47;11.70;;;1.60;99.90;;;;;;4156401;28;20454;-74
2023/03/01 10:29:31;;;;;;;24.10;11.73;;;1.60;99.90;;;;;;4177249;28;20996;-75
2023/03/01 10:31:42;;;;;;;26.33;11.83;;;1.70;99.90;;;;;;4177572;28;20817;-74
2023/03/01 10:33:44;;;;;;;28.40;11.83;;;1.70;99.90;;;;;;4176473;28;20521;-74
2023/03/01 10:35:47;;;;;;;23.63;11.33;;;1.80;99.90;;;;;;4177617;28;20555;-72
2023/03/01 10:37:59;;;;;;;22.00;10.77;;;1.80;99.90;;;;;;4154941;28;20482;-72